sensor_id;sensor_type;location;lat;lon;timestamp;pressure;altitude;pressure_sealevel;temperature;humidity
71222;BME280;58965;59.324;18.268;2022-07-29T00:00:58;101825.25;;;14.48;22.81
71222;BME280;58965;59.324;18.268;2022-07-29T00:03:23;101826.29;;;14.05;22.98
71222;BME280;58965;59.324;18.268;2022-07-29T00:05:48;101825.32;;;14.85;22.36
71222;BME280;58965;59.324;18.268;2022-07-29T00:08:13;101827.77;;;12.49;23.76
71222;BME280;58965;59.324;18.268;2022-07-29T00:10:38;101830.02;;;14.06;23.26
71222;BME280;58965;59.324;18.268;2022-07-29T00:13:03;101825.96;;;14.66;22.59
71222;BME280;58965;59.324;18.268;2022-07-29T00:15:28;101824.47;;;15.72;21.95
71222;BME280;58965;59.324;18.268;2022-07-29T00:17:54;101825.55;;;14.14;22.75
71222;BME280;58965;59.324;18.268;2022-07-29T00:20:19;101828.28;;;13.63;22.96
71222;BME280;58965;59.324;18.268;2022-07-29T00:22:44;101830.57;;;14.02;22.94
71222;BME280;58965;59.324;18.268;2022-07-29T00:25:09;101825.99;;;14.05;22.76
71222;BME280;58965;59.324;18.268;2022-07-29T00:27:35;101830.05;;;14.22;22.84
71222;BME280;58965;59.324;18.268;2022-07-29T00:29:59;101826.84;;;13.98;22.74
71222;BME280;58965;59.324;18.268;2022-07-29T00:32:24;101828.21;;;14.08;22.84
71222;BME280;58965;59.324;18.268;2022-07-29T00:34:49;101820.72;;;14.41;22.66
71222;BME280;58965;59.324;18.268;2022-07-29T00:37:14;101819.53;;;15.09;22.24
71222;BME280;58965;59.324;18.268;2022-07-29T00:39:39;101819.24;;;14.59;22.46
71222;BME280;58965;59.324;18.268;2022-07-29T00:42:05;101817.63;;;14.36;22.56
71222;BME280;58965;59.324;18.268;2022-07-29T00:44:29;101814.75;;;14.56;22.29
71222;BME280;58965;59.324;18.268;2022-07-29T00:46:54;101815.40;;;13.81;22.74
71222;BME280;58965;59.324;18.268;2022-07-29T00:49:19;101819.99;;;13.60;22.96
71222;BME280;58965;59.324;18.268;2022-07-29T00:51:45;101817.78;;;13.94;22.91
71222;BME280;58965;59.324;18.268;2022-07-29T00:54:09;101809.57;;;15.09;22.47
71222;BME280;58965;59.324;18.268;2022-07-29T00:56:36;101809.66;;;14.30;22.70
71222;BME280;58965;59.324;18.268;2022-07-29T00:59:00;101811.61;;;14.51;22.73
71222;BME280;58965;59.324;18.268;2022-07-29T01:01:25;101812.35;;;14.50;22.66
71222;BME280;58965;59.324;18.268;2022-07-29T01:03:50;101816.28;;;14.02;22.83
71222;BME280;58965;59.324;18.268;2022-07-29T01:06:15;101810.61;;;14.58;22.45
71222;BME280;58965;59.324;18.268;2022-07-29T01:08:40;101817.15;;;12.68;23.70
71222;BME280;58965;59.324;18.268;2022-07-29T01:11:05;101816.85;;;12.23;24.29
71222;BME280;58965;59.324;18.268;2022-07-29T01:13:30;101814.37;;;12.56;24.16
71222;BME280;58965;59.324;18.268;2022-07-29T01:16:00;101815.65;;;12.85;23.83
71222;BME280;58965;59.324;18.268;2022-07-29T01:18:23;101810.12;;;14.45;22.76
71222;BME280;58965;59.324;18.268;2022-07-29T01:21:03;101814.60;;;14.24;22.90
71222;BME280;58965;59.324;18.268;2022-07-29T01:23:30;101816.03;;;14.01;23.00
71222;BME280;58965;59.324;18.268;2022-07-29T01:25:48;101813.96;;;13.60;22.97
71222;BME280;58965;59.324;18.268;2022-07-29T01:28:11;101810.48;;;13.16;23.44
71222;BME280;58965;59.324;18.268;2022-07-29T01:30:26;101811.59;;;14.88;22.61
71222;BME280;58965;59.324;18.268;2022-07-29T01:32:54;101811.49;;;12.49;23.59
71222;BME280;58965;59.324;18.268;2022-07-29T01:35:20;101806.14;;;14.47;22.52
71222;BME280;58965;59.324;18.268;2022-07-29T01:37:45;101808.17;;;14.32;22.48
71222;BME280;58965;59.324;18.268;2022-07-29T01:40:11;101807.18;;;14.68;22.45
71222;BME280;58965;59.324;18.268;2022-07-29T01:42:35;101815.56;;;13.97;22.61
71222;BME280;58965;59.324;18.268;2022-07-29T01:44:59;101815.27;;;14.00;22.83
71222;BME280;58965;59.324;18.268;2022-07-29T01:47:25;101817.66;;;14.12;22.78
71222;BME280;58965;59.324;18.268;2022-07-29T01:49:49;101817.55;;;13.51;22.81
71222;BME280;58965;59.324;18.268;2022-07-29T01:52:19;101816.30;;;14.14;22.50
71222;BME280;58965;59.324;18.268;2022-07-29T01:54:39;101815.08;;;13.96;22.54
71222;BME280;58965;59.324;18.268;2022-07-29T01:57:03;101816.09;;;14.09;22.76
71222;BME280;58965;59.324;18.268;2022-07-29T01:59:28;101813.84;;;14.06;22.95
71222;BME280;58965;59.324;18.268;2022-07-29T02:01:54;101815.72;;;13.88;22.80
71222;BME280;58965;59.324;18.268;2022-07-29T02:04:18;101816.44;;;13.92;22.50
71222;BME280;58965;59.324;18.268;2022-07-29T02:06:42;101815.08;;;13.59;22.93
71222;BME280;58965;59.324;18.268;2022-07-29T02:09:09;101814.60;;;14.36;22.65
71222;BME280;58965;59.324;18.268;2022-07-29T02:11:33;101812.23;;;14.11;22.73
71222;BME280;58965;59.324;18.268;2022-07-29T02:13:58;101814.09;;;13.87;22.84
71222;BME280;58965;59.324;18.268;2022-07-29T02:16:23;101815.33;;;13.91;22.76
71222;BME280;58965;59.324;18.268;2022-07-29T02:18:49;101815.55;;;13.66;22.67
71222;BME280;58965;59.324;18.268;2022-07-29T02:21:13;101818.05;;;13.38;22.87
71222;BME280;58965;59.324;18.268;2022-07-29T02:23:38;101815.87;;;13.18;22.90
71222;BME280;58965;59.324;18.268;2022-07-29T02:26:03;101819.01;;;13.80;22.31
71222;BME280;58965;59.324;18.268;2022-07-29T02:28:29;101817.88;;;12.65;23.21
71222;BME280;58965;59.324;18.268;2022-07-29T02:30:53;101818.26;;;14.14;22.76
71222;BME280;58965;59.324;18.268;2022-07-29T02:33:18;101816.83;;;13.79;22.77
71222;BME280;58965;59.324;18.268;2022-07-29T02:35:44;101815.84;;;14.11;22.45
71222;BME280;58965;59.324;18.268;2022-07-29T02:38:10;101817.71;;;13.19;22.79
71222;BME280;58965;59.324;18.268;2022-07-29T02:40:35;101818.24;;;13.97;22.65
71222;BME280;58965;59.324;18.268;2022-07-29T02:42:59;101818.17;;;12.57;23.42
71222;BME280;58965;59.324;18.268;2022-07-29T02:45:23;101819.78;;;12.95;23.47
71222;BME280;58965;59.324;18.268;2022-07-29T02:47:49;101821.45;;;11.65;24.12
71222;BME280;58965;59.324;18.268;2022-07-29T02:50:15;101822.26;;;13.38;22.93
71222;BME280;58965;59.324;18.268;2022-07-29T02:52:42;101824.96;;;13.50;22.63
71222;BME280;58965;59.324;18.268;2022-07-29T02:55:08;101824.90;;;14.00;22.45
71222;BME280;58965;59.324;18.268;2022-07-29T02:57:32;101825.46;;;13.80;22.48
71222;BME280;58965;59.324;18.268;2022-07-29T02:59:58;101827.13;;;13.30;22.99
71222;BME280;58965;59.324;18.268;2022-07-29T03:02:20;101827.53;;;12.71;23.01
71222;BME280;58965;59.324;18.268;2022-07-29T03:04:44;101826.79;;;13.08;22.87
71222;BME280;58965;59.324;18.268;2022-07-29T03:07:11;101828.52;;;13.30;22.79
71222;BME280;58965;59.324;18.268;2022-07-29T03:09:36;101832.11;;;14.30;22.10
71222;BME280;58965;59.324;18.268;2022-07-29T03:12:00;101833.19;;;13.92;22.50
71222;BME280;58965;59.324;18.268;2022-07-29T03:14:25;101835.38;;;13.95;22.70
71222;BME280;58965;59.324;18.268;2022-07-29T03:16:50;101836.34;;;13.24;22.67
71222;BME280;58965;59.324;18.268;2022-07-29T03:19:14;101841.52;;;14.12;22.39
71222;BME280;58965;59.324;18.268;2022-07-29T03:21:39;101842.95;;;13.65;22.57
71222;BME280;58965;59.324;18.268;2022-07-29T03:24:05;101843.63;;;13.66;22.68
71222;BME280;58965;59.324;18.268;2022-07-29T03:26:30;101847.24;;;13.27;22.80
71222;BME280;58965;59.324;18.268;2022-07-29T03:28:55;101846.75;;;13.14;23.05
71222;BME280;58965;59.324;18.268;2022-07-29T03:31:20;101850.35;;;14.06;22.62
71222;BME280;58965;59.324;18.268;2022-07-29T03:33:45;101852.37;;;13.86;22.45
71222;BME280;58965;59.324;18.268;2022-07-29T03:36:10;101850.86;;;13.89;22.53
71222;BME280;58965;59.324;18.268;2022-07-29T03:38:36;101851.36;;;13.14;22.97
71222;BME280;58965;59.324;18.268;2022-07-29T03:41:02;101848.10;;;13.56;22.85
71222;BME280;58965;59.324;18.268;2022-07-29T03:43:27;101846.70;;;13.42;22.82
71222;BME280;58965;59.324;18.268;2022-07-29T03:45:52;101849.03;;;14.42;22.21
71222;BME280;58965;59.324;18.268;2022-07-29T03:48:19;101849.18;;;12.82;23.26
71222;BME280;58965;59.324;18.268;2022-07-29T03:50:41;101845.88;;;12.90;23.07
71222;BME280;58965;59.324;18.268;2022-07-29T03:53:06;101847.94;;;12.68;23.17
71222;BME280;58965;59.324;18.268;2022-07-29T03:55:36;101847.89;;;14.00;22.56
71222;BME280;58965;59.324;18.268;2022-07-29T03:57:57;101847.18;;;12.81;23.07
71222;BME280;58965;59.324;18.268;2022-07-29T04:00:22;101847.96;;;12.87;23.07
71222;BME280;58965;59.324;18.268;2022-07-29T04:02:46;101850.48;;;13.02;23.46
71222;BME280;58965;59.324;18.268;2022-07-29T04:05:12;101853.90;;;11.83;23.91
71222;BME280;58965;59.324;18.268;2022-07-29T04:07:36;101853.94;;;13.07;23.66
71222;BME280;58965;59.324;18.268;2022-07-29T04:10:01;101856.43;;;12.11;24.19
71222;BME280;58965;59.324;18.268;2022-07-29T04:12:26;101856.81;;;11.82;24.31
71222;BME280;58965;59.324;18.268;2022-07-29T04:14:51;101857.76;;;12.02;24.19
71222;BME280;58965;59.324;18.268;2022-07-29T04:17:17;101860.25;;;13.22;23.22
71222;BME280;58965;59.324;18.268;2022-07-29T04:19:42;101859.71;;;10.43;25.70
71222;BME280;58965;59.324;18.268;2022-07-29T04:22:07;101860.19;;;10.76;25.44
71222;BME280;58965;59.324;18.268;2022-07-29T04:24:32;101857.83;;;10.41;25.34
71222;BME280;58965;59.324;18.268;2022-07-29T04:26:57;101857.32;;;11.24;25.31
71222;BME280;58965;59.324;18.268;2022-07-29T04:29:22;101859.72;;;11.58;25.13
71222;BME280;58965;59.324;18.268;2022-07-29T04:31:47;101860.38;;;10.64;25.23
71222;BME280;58965;59.324;18.268;2022-07-29T04:34:13;101862.98;;;10.84;25.33
71222;BME280;58965;59.324;18.268;2022-07-29T04:36:38;101864.51;;;10.82;25.48
71222;BME280;58965;59.324;18.268;2022-07-29T04:39:03;101864.87;;;11.45;25.45
71222;BME280;58965;59.324;18.268;2022-07-29T04:41:28;101866.04;;;10.83;25.48
71222;BME280;58965;59.324;18.268;2022-07-29T04:43:52;101868.08;;;10.94;25.43
71222;BME280;58965;59.324;18.268;2022-07-29T04:46:18;101866.46;;;10.17;25.44
71222;BME280;58965;59.324;18.268;2022-07-29T04:48:45;101865.44;;;10.72;25.68
71222;BME280;58965;59.324;18.268;2022-07-29T04:51:08;101862.89;;;11.11;25.70
71222;BME280;58965;59.324;18.268;2022-07-29T04:53:34;101862.77;;;10.70;25.70
71222;BME280;58965;59.324;18.268;2022-07-29T04:55:58;101864.45;;;10.39;25.83
71222;BME280;58965;59.324;18.268;2022-07-29T04:58:23;101862.37;;;10.89;25.92
71222;BME280;58965;59.324;18.268;2022-07-29T05:00:48;101863.27;;;11.11;25.85
71222;BME280;58965;59.324;18.268;2022-07-29T05:03:13;101864.15;;;10.72;25.96
71222;BME280;58965;59.324;18.268;2022-07-29T05:05:38;101865.33;;;11.11;25.81
71222;BME280;58965;59.324;18.268;2022-07-29T05:08:04;101867.29;;;10.24;26.00
71222;BME280;58965;59.324;18.268;2022-07-29T05:10:28;101867.10;;;10.81;25.72
71222;BME280;58965;59.324;18.268;2022-07-29T05:12:54;101865.04;;;11.02;25.90
71222;BME280;58965;59.324;18.268;2022-07-29T05:15:19;101867.64;;;10.48;26.07
71222;BME280;58965;59.324;18.268;2022-07-29T05:17:44;101869.34;;;11.07;25.99
71222;BME280;58965;59.324;18.268;2022-07-29T05:20:09;101867.83;;;11.00;26.01
71222;BME280;58965;59.324;18.268;2022-07-29T05:22:35;101868.15;;;10.42;26.09
71222;BME280;58965;59.324;18.268;2022-07-29T05:24:59;101867.95;;;10.69;26.29
71222;BME280;58965;59.324;18.268;2022-07-29T05:27:24;101868.84;;;10.27;26.32
71222;BME280;58965;59.324;18.268;2022-07-29T05:29:49;101872.18;;;10.43;26.36
71222;BME280;58965;59.324;18.268;2022-07-29T05:32:14;101871.66;;;11.05;26.26
71222;BME280;58965;59.324;18.268;2022-07-29T05:34:40;101874.09;;;10.72;26.38
71222;BME280;58965;59.324;18.268;2022-07-29T05:37:04;101874.04;;;10.83;26.16
71222;BME280;58965;59.324;18.268;2022-07-29T05:39:29;101876.20;;;11.18;26.12
71222;BME280;58965;59.324;18.268;2022-07-29T05:41:55;101875.52;;;10.64;26.46
71222;BME280;58965;59.324;18.268;2022-07-29T05:44:20;101875.96;;;9.91;26.56
71222;BME280;58965;59.324;18.268;2022-07-29T05:46:45;101878.09;;;10.54;26.39
71222;BME280;58965;59.324;18.268;2022-07-29T05:49:10;101880.35;;;10.68;26.53
71222;BME280;58965;59.324;18.268;2022-07-29T05:51:36;101884.15;;;10.86;26.41
71222;BME280;58965;59.324;18.268;2022-07-29T05:54:00;101885.11;;;10.90;26.35
71222;BME280;58965;59.324;18.268;2022-07-29T05:56:25;101881.85;;;10.49;26.64
71222;BME280;58965;59.324;18.268;2022-07-29T05:58:50;101882.80;;;9.85;26.71
71222;BME280;58965;59.324;18.268;2022-07-29T06:01:15;101886.17;;;10.34;26.75
71222;BME280;58965;59.324;18.268;2022-07-29T06:03:40;101886.68;;;10.12;26.68
71222;BME280;58965;59.324;18.268;2022-07-29T06:06:05;101886.05;;;10.82;26.64
71222;BME280;58965;59.324;18.268;2022-07-29T06:08:31;101887.30;;;10.25;26.66
71222;BME280;58965;59.324;18.268;2022-07-29T06:10:56;101890.98;;;10.77;26.61
71222;BME280;58965;59.324;18.268;2022-07-29T06:13:21;101890.36;;;10.52;26.24
71222;BME280;58965;59.324;18.268;2022-07-29T06:15:46;101891.15;;;10.23;26.72
71222;BME280;58965;59.324;18.268;2022-07-29T06:18:12;101889.79;;;10.98;26.34
71222;BME280;58965;59.324;18.268;2022-07-29T06:20:36;101896.10;;;10.21;26.28
71222;BME280;58965;59.324;18.268;2022-07-29T06:23:01;101898.87;;;10.05;26.42
71222;BME280;58965;59.324;18.268;2022-07-29T06:25:26;101903.26;;;10.70;26.43
71222;BME280;58965;59.324;18.268;2022-07-29T06:27:52;101902.81;;;10.46;26.53
71222;BME280;58965;59.324;18.268;2022-07-29T06:30:16;101906.21;;;10.48;26.55
71222;BME280;58965;59.324;18.268;2022-07-29T06:32:41;101908.42;;;10.04;26.26
71222;BME280;58965;59.324;18.268;2022-07-29T06:35:07;101910.51;;;10.64;26.18
71222;BME280;58965;59.324;18.268;2022-07-29T06:37:32;101911.79;;;10.30;26.25
71222;BME280;58965;59.324;18.268;2022-07-29T06:39:57;101911.56;;;10.57;26.08
71222;BME280;58965;59.324;18.268;2022-07-29T06:42:22;101912.58;;;10.44;26.14
71222;BME280;58965;59.324;18.268;2022-07-29T06:44:47;101913.18;;;10.07;26.02
71222;BME280;58965;59.324;18.268;2022-07-29T06:47:12;101914.80;;;10.23;25.95
71222;BME280;58965;59.324;18.268;2022-07-29T06:49:37;101916.25;;;10.75;25.82
71222;BME280;58965;59.324;18.268;2022-07-29T06:52:02;101915.27;;;10.37;25.68
71222;BME280;58965;59.324;18.268;2022-07-29T06:54:27;101916.39;;;10.61;25.59
71222;BME280;58965;59.324;18.268;2022-07-29T06:56:52;101913.70;;;10.42;25.54
71222;BME280;58965;59.324;18.268;2022-07-29T06:59:17;101917.49;;;10.98;25.29
71222;BME280;58965;59.324;18.268;2022-07-29T07:01:43;101919.59;;;11.03;24.97
71222;BME280;58965;59.324;18.268;2022-07-29T07:04:09;101923.87;;;11.26;24.86
71222;BME280;58965;59.324;18.268;2022-07-29T07:06:33;101919.47;;;11.40;24.69
71222;BME280;58965;59.324;18.268;2022-07-29T07:08:58;101922.80;;;11.35;24.68
71222;BME280;58965;59.324;18.268;2022-07-29T07:11:23;101924.23;;;11.07;24.61
71222;BME280;58965;59.324;18.268;2022-07-29T07:13:48;101927.34;;;11.81;24.29
71222;BME280;58965;59.324;18.268;2022-07-29T07:16:13;101921.96;;;11.87;24.17
71222;BME280;58965;59.324;18.268;2022-07-29T07:18:38;101923.17;;;10.80;24.26
71222;BME280;58965;59.324;18.268;2022-07-29T07:21:03;101919.02;;;11.46;24.33
71222;BME280;58965;59.324;18.268;2022-07-29T07:23:28;101918.39;;;11.69;24.28
71222;BME280;58965;59.324;18.268;2022-07-29T07:25:53;101917.20;;;11.81;24.00
71222;BME280;58965;59.324;18.268;2022-07-29T07:28:19;101918.19;;;11.33;24.01
71222;BME280;58965;59.324;18.268;2022-07-29T07:30:45;101919.29;;;11.39;24.07
71222;BME280;58965;59.324;18.268;2022-07-29T07:33:08;101914.54;;;10.88;24.06
71222;BME280;58965;59.324;18.268;2022-07-29T07:35:34;101912.12;;;11.70;23.81
71222;BME280;58965;59.324;18.268;2022-07-29T07:37:59;101909.71;;;11.25;23.63
71222;BME280;58965;59.324;18.268;2022-07-29T07:40:24;101908.29;;;11.87;23.63
71222;BME280;58965;59.324;18.268;2022-07-29T07:42:49;101908.07;;;10.99;23.77
71222;BME280;58965;59.324;18.268;2022-07-29T07:45:14;101907.62;;;10.93;23.86
71222;BME280;58965;59.324;18.268;2022-07-29T07:47:39;101906.16;;;11.56;23.59
71222;BME280;58965;59.324;18.268;2022-07-29T07:50:06;101902.04;;;11.61;23.55
71222;BME280;58965;59.324;18.268;2022-07-29T07:52:29;101902.71;;;11.59;23.37
71222;BME280;58965;59.324;18.268;2022-07-29T07:54:54;101901.14;;;11.45;23.56
71222;BME280;58965;59.324;18.268;2022-07-29T07:57:20;101902.21;;;12.75;23.27
71222;BME280;58965;59.324;18.268;2022-07-29T07:59:44;101903.73;;;11.91;23.44
71222;BME280;58965;59.324;18.268;2022-07-29T08:02:10;101903.03;;;11.63;23.79
71222;BME280;58965;59.324;18.268;2022-07-29T08:04:36;101901.31;;;12.27;23.45
71222;BME280;58965;59.324;18.268;2022-07-29T08:07:00;101902.68;;;12.14;23.30
71222;BME280;58965;59.324;18.268;2022-07-29T08:09:26;101902.79;;;12.18;23.47
71222;BME280;58965;59.324;18.268;2022-07-29T08:11:50;101902.10;;;12.38;23.63
71222;BME280;58965;59.324;18.268;2022-07-29T08:14:15;101905.51;;;12.34;23.48
71222;BME280;58965;59.324;18.268;2022-07-29T08:16:40;101906.47;;;12.02;23.40
71222;BME280;58965;59.324;18.268;2022-07-29T08:19:05;101913.09;;;12.88;23.15
71222;BME280;58965;59.324;18.268;2022-07-29T08:21:30;101908.90;;;12.98;23.15
71222;BME280;58965;59.324;18.268;2022-07-29T08:23:55;101912.00;;;12.59;23.08
71222;BME280;58965;59.324;18.268;2022-07-29T08:26:21;101912.53;;;13.10;23.14
71222;BME280;58965;59.324;18.268;2022-07-29T08:28:46;101910.64;;;12.72;23.07
71222;BME280;58965;59.324;18.268;2022-07-29T08:31:11;101910.77;;;13.26;22.97
71222;BME280;58965;59.324;18.268;2022-07-29T08:33:36;101910.65;;;12.97;22.95
71222;BME280;58965;59.324;18.268;2022-07-29T08:36:01;101910.77;;;13.14;22.91
71222;BME280;58965;59.324;18.268;2022-07-29T08:38:26;101909.96;;;13.64;22.81
71222;BME280;58965;59.324;18.268;2022-07-29T08:40:51;101909.55;;;13.30;22.59
71222;BME280;58965;59.324;18.268;2022-07-29T08:43:16;101912.62;;;14.49;22.35
71222;BME280;58965;59.324;18.268;2022-07-29T08:45:43;101913.80;;;13.73;22.63
71222;BME280;58965;59.324;18.268;2022-07-29T08:48:06;101911.86;;;13.20;22.82
71222;BME280;58965;59.324;18.268;2022-07-29T08:50:32;101909.91;;;12.90;22.93
71222;BME280;58965;59.324;18.268;2022-07-29T08:52:57;101912.56;;;13.73;22.54
71222;BME280;58965;59.324;18.268;2022-07-29T08:55:22;101916.11;;;13.50;22.63
71222;BME280;58965;59.324;18.268;2022-07-29T08:57:47;101915.97;;;12.84;22.93
71222;BME280;58965;59.324;18.268;2022-07-29T09:00:12;101916.55;;;12.83;22.71
71222;BME280;58965;59.324;18.268;2022-07-29T09:02:40;101914.57;;;12.91;22.80
71222;BME280;58965;59.324;18.268;2022-07-29T09:05:02;101913.50;;;12.83;22.71
71222;BME280;58965;59.324;18.268;2022-07-29T09:07:27;101914.33;;;13.35;22.57
71222;BME280;58965;59.324;18.268;2022-07-29T09:09:52;101914.17;;;13.98;22.18
71222;BME280;58965;59.324;18.268;2022-07-29T09:12:17;101918.86;;;13.49;22.39
71222;BME280;58965;59.324;18.268;2022-07-29T09:14:43;101913.68;;;13.96;22.16
71222;BME280;58965;59.324;18.268;2022-07-29T09:17:07;101912.35;;;13.85;22.39
71222;BME280;58965;59.324;18.268;2022-07-29T09:19:34;101913.14;;;14.03;22.22
71222;BME280;58965;59.324;18.268;2022-07-29T09:21:59;101908.49;;;12.98;22.78
71222;BME280;58965;59.324;18.268;2022-07-29T09:24:23;101908.24;;;13.16;22.63
71222;BME280;58965;59.324;18.268;2022-07-29T09:26:48;101907.82;;;13.89;22.34
71222;BME280;58965;59.324;18.268;2022-07-29T09:29:14;101897.64;;;14.29;21.96
71222;BME280;58965;59.324;18.268;2022-07-29T09:31:39;101899.55;;;13.93;22.18
71222;BME280;58965;59.324;18.268;2022-07-29T09:34:04;101899.03;;;14.05;22.06
71222;BME280;58965;59.324;18.268;2022-07-29T09:36:28;101900.51;;;13.70;22.56
71222;BME280;58965;59.324;18.268;2022-07-29T09:38:57;101899.90;;;13.70;22.43
71222;BME280;58965;59.324;18.268;2022-07-29T09:41:18;101900.06;;;13.88;22.44
71222;BME280;58965;59.324;18.268;2022-07-29T09:43:53;101898.75;;;14.05;22.14
71222;BME280;58965;59.324;18.268;2022-07-29T09:46:10;101900.11;;;13.40;22.26
71222;BME280;58965;59.324;18.268;2022-07-29T09:48:34;101901.20;;;12.96;22.70
71222;BME280;58965;59.324;18.268;2022-07-29T09:50:59;101902.23;;;12.83;22.78
71222;BME280;58965;59.324;18.268;2022-07-29T09:53:32;101903.74;;;13.28;22.65
71222;BME280;58965;59.324;18.268;2022-07-29T09:55:49;101903.69;;;13.13;22.71
71222;BME280;58965;59.324;18.268;2022-07-29T09:58:16;101900.89;;;12.54;23.22
71222;BME280;58965;59.324;18.268;2022-07-29T10:00:42;101902.06;;;13.12;23.01
71222;BME280;58965;59.324;18.268;2022-07-29T10:03:04;101902.02;;;13.00;22.76
71222;BME280;58965;59.324;18.268;2022-07-29T10:05:29;101898.88;;;13.38;22.68
71222;BME280;58965;59.324;18.268;2022-07-29T10:07:56;101896.79;;;12.32;22.98
71222;BME280;58965;59.324;18.268;2022-07-29T10:10:21;101899.33;;;13.28;22.59
71222;BME280;58965;59.324;18.268;2022-07-29T10:12:49;101900.46;;;12.40;22.87
71222;BME280;58965;59.324;18.268;2022-07-29T10:15:09;101900.30;;;12.99;22.82
71222;BME280;58965;59.324;18.268;2022-07-29T10:17:35;101903.01;;;13.24;22.95
71222;BME280;58965;59.324;18.268;2022-07-29T10:20:00;101904.61;;;12.66;23.00
71222;BME280;58965;59.324;18.268;2022-07-29T10:22:25;101900.06;;;12.90;23.09
71222;BME280;58965;59.324;18.268;2022-07-29T10:24:50;101899.51;;;12.41;22.95
71222;BME280;58965;59.324;18.268;2022-07-29T10:27:15;101898.24;;;12.42;22.93
71222;BME280;58965;59.324;18.268;2022-07-29T10:29:40;101898.67;;;12.80;23.22
71222;BME280;58965;59.324;18.268;2022-07-29T10:32:18;101894.27;;;12.49;23.05
71222;BME280;58965;59.324;18.268;2022-07-29T10:34:43;101893.92;;;12.77;23.34
71222;BME280;58965;59.324;18.268;2022-07-29T10:37:01;101889.21;;;11.83;23.04
71222;BME280;58965;59.324;18.268;2022-07-29T10:39:32;101891.06;;;13.18;23.16
71222;BME280;58965;59.324;18.268;2022-07-29T10:42:02;101888.48;;;12.49;23.16
71222;BME280;58965;59.324;18.268;2022-07-29T10:44:15;101890.89;;;12.86;23.02
71222;BME280;58965;59.324;18.268;2022-07-29T10:46:38;101890.52;;;12.79;22.97
71222;BME280;58965;59.324;18.268;2022-07-29T10:49:05;101890.17;;;13.01;22.67
71222;BME280;58965;59.324;18.268;2022-07-29T10:51:51;101883.60;;;12.88;22.48
71222;BME280;58965;59.324;18.268;2022-07-29T10:53:52;101884.88;;;12.77;22.56
71222;BME280;58965;59.324;18.268;2022-07-29T10:56:24;101878.74;;;13.09;22.48
71222;BME280;58965;59.324;18.268;2022-07-29T10:58:41;101878.08;;;13.14;22.42
71222;BME280;58965;59.324;18.268;2022-07-29T11:01:28;101880.03;;;13.15;22.43
71222;BME280;58965;59.324;18.268;2022-07-29T11:03:47;101878.20;;;13.67;22.46
71222;BME280;58965;59.324;18.268;2022-07-29T11:05:56;101880.15;;;13.50;22.74
71222;BME280;58965;59.324;18.268;2022-07-29T11:08:23;101875.89;;;13.31;22.64
71222;BME280;58965;59.324;18.268;2022-07-29T11:10:47;101875.27;;;13.05;22.59
71222;BME280;58965;59.324;18.268;2022-07-29T11:13:11;101873.79;;;13.36;22.41
71222;BME280;58965;59.324;18.268;2022-07-29T11:15:52;101869.04;;;13.02;22.49
71222;BME280;58965;59.324;18.268;2022-07-29T11:18:04;101867.86;;;13.19;22.40
71222;BME280;58965;59.324;18.268;2022-07-29T11:20:31;101868.24;;;13.33;22.28
71222;BME280;58965;59.324;18.268;2022-07-29T11:22:52;101871.47;;;13.59;22.25
71222;BME280;58965;59.324;18.268;2022-07-29T11:25:18;101868.34;;;13.73;22.18
71222;BME280;58965;59.324;18.268;2022-07-29T11:27:42;101867.32;;;13.32;22.23
71222;BME280;58965;59.324;18.268;2022-07-29T11:30:08;101861.92;;;13.51;22.17
71222;BME280;58965;59.324;18.268;2022-07-29T11:32:37;101865.67;;;13.00;22.26
71222;BME280;58965;59.324;18.268;2022-07-29T11:35:15;101861.87;;;13.55;22.10
71222;BME280;58965;59.324;18.268;2022-07-29T11:37:23;101858.18;;;13.68;21.72
71222;BME280;58965;59.324;18.268;2022-07-29T11:40:08;101861.35;;;13.92;21.93
71222;BME280;58965;59.324;18.268;2022-07-29T11:42:46;101864.82;;;13.77;21.86
71222;BME280;58965;59.324;18.268;2022-07-29T11:44:54;101866.14;;;13.52;22.12
71222;BME280;58965;59.324;18.268;2022-07-29T11:47:03;101864.98;;;13.28;22.12
71222;BME280;58965;59.324;18.268;2022-07-29T11:49:28;101856.39;;;12.99;21.93
71222;BME280;58965;59.324;18.268;2022-07-29T11:51:53;101854.92;;;14.19;21.98
71222;BME280;58965;59.324;18.268;2022-07-29T11:54:34;101854.91;;;13.78;21.79
71222;BME280;58965;59.324;18.268;2022-07-29T11:56:46;101854.12;;;14.13;21.57
71222;BME280;58965;59.324;18.268;2022-07-29T11:59:08;101854.29;;;13.70;21.72
71222;BME280;58965;59.324;18.268;2022-07-29T12:01:34;101857.17;;;13.53;21.91
71222;BME280;58965;59.324;18.268;2022-07-29T12:04:03;101861.10;;;13.10;22.12
71222;BME280;58965;59.324;18.268;2022-07-29T12:06:23;101863.36;;;13.47;22.13
71222;BME280;58965;59.324;18.268;2022-07-29T12:08:48;101857.74;;;13.16;22.04
71222;BME280;58965;59.324;18.268;2022-07-29T12:11:16;101856.20;;;13.82;22.06
71222;BME280;58965;59.324;18.268;2022-07-29T12:13:38;101860.33;;;14.14;22.01
71222;BME280;58965;59.324;18.268;2022-07-29T12:16:04;101863.92;;;13.15;22.16
71222;BME280;58965;59.324;18.268;2022-07-29T12:18:29;101864.90;;;13.02;22.35
71222;BME280;58965;59.324;18.268;2022-07-29T12:20:57;101856.13;;;13.61;22.21
71222;BME280;58965;59.324;18.268;2022-07-29T12:23:19;101859.37;;;13.50;22.09
71222;BME280;58965;59.324;18.268;2022-07-29T12:25:44;101857.91;;;13.31;22.08
71222;BME280;58965;59.324;18.268;2022-07-29T12:28:11;101862.07;;;13.59;22.18